Terminal Aerodrome Forecast
Issued by NWS

Home | Current Version | Previous Version | Text Only | Print | Product List | Glossary On
Versions: 1 2 3 4 5 6 7 8 9 10 11 12 13 14 15 16 17 18 19 20
910
FTUS43 KILX 261256 AAA
TAFCMI
TAF AMD
KCMI 261256Z 2613/2712 13008KT 6SM BR BKN200
      TEMPO 2613/2614 5SM BR
     FM261400 15007KT P6SM SCT100 BKN200
     FM261700 16010G15KT P6SM SCT070 BKN200
     FM262200 18009KT P6SM VCTS BKN060CB
     FM270300 22005KT P6SM BKN015
     FM270900 35004KT P6SM SCT008=

USA.gov is the U.S. government's official web portal to all federal, state and local government web resources and services.